Terminal Aerodrome Forecast
Issued by NWS

Home | Current Version | Previous Version | Text Only | Print | Product List | Glossary On
Versions: 1 2 3 4 5 6 7 8 9 10 11 12
000
FTUS42 KGSP 202327
TAFHKY
TAF
KHKY 202327Z 2100/2124 12003KT P6SM SCT250
     FM210800 06003KT P6SM BKN250
     FM211200 07004KT P6SM SCT008 BKN020
     FM211500 09004KT P6SM BKN020
     FM211900 14004KT P6SM SCT120 BKN200
     FM212300 14005KT P6SM BKN040 OVC200=

USA.gov is the U.S. government's official web portal to all federal, state and local government web resources and services.